Time;durP1;ratioP1;P1;durP2;ratioP2;P2;SDS_P1;SDS_P2;PMS_P1;PMS_P2;Temp;Humidity;BMP_temperature;BMP_pressure;BME280_temperature;BME280_humidity;BME280_pressure;Samples;Min_cycle;Max_cycle;Signal;HPM_P1;HPM_P2
2022/11/06 00:00:17;;;;;;;115.78;10.07;;;3.50;99.90;;;;;;4990535;28;20045;-71
2022/11/06 00:02:44;;;;;;;167.05;11.45;;;3.40;99.90;;;;;;4991793;28;20065;-70
2022/11/06 00:07:54;;;;;;;92.72;10.93;;;3.30;99.90;;;;;;4989246;28;20065;-71
2022/11/06 00:10:19;;;;;;;39.92;10.57;;;3.20;99.90;;;;;;4991391;28;20030;-71
2022/11/06 00:12:45;;;;;;;94.35;11.88;;;3.20;99.90;;;;;;4988675;28;20057;-70
2022/11/06 00:15:11;;;;;;;48.67;10.68;;;3.20;99.90;;;;;;4990302;28;20954;-71
2022/11/06 00:17:37;;;;;;;116.88;11.45;;;3.20;99.90;;;;;;4989066;28;20038;-69
2022/11/06 00:20:04;;;;;;;87.63;10.43;;;3.30;99.90;;;;;;4989806;28;20030;-71
2022/11/06 00:22:35;;;;;;;54.17;9.93;;;3.20;99.90;;;;;;4991167;28;20030;-72
2022/11/06 00:25:00;;;;;;;36.40;10.45;;;3.10;99.90;;;;;;4990169;28;20030;-71
2022/11/06 00:27:26;;;;;;;122.38;11.88;;;3.20;99.90;;;;;;4988817;28;20053;-71
2022/11/06 00:29:52;;;;;;;44.88;9.75;;;3.20;99.90;;;;;;4989925;28;20391;-73
2022/11/06 00:32:18;;;;;;;64.68;10.38;;;3.20;99.90;;;;;;4982299;28;20396;-71
2022/11/06 00:34:43;;;;;;;44.85;9.25;;;3.20;99.90;;;;;;4989739;28;20387;-70
2022/11/06 00:37:09;;;;;;;66.85;10.18;;;3.20;99.90;;;;;;4989298;28;20037;-71
2022/11/06 00:39:35;;;;;;;47.88;11.10;;;3.20;99.90;;;;;;4990113;28;20041;-71
2022/11/06 00:42:00;;;;;;;59.90;11.00;;;3.10;99.90;;;;;;4988925;28;20114;-71
2022/11/06 00:44:26;;;;;;;53.28;11.35;;;3.00;99.90;;;;;;4991017;28;20711;-71
2022/11/06 00:46:51;;;;;;;37.60;10.07;;;3.00;99.90;;;;;;4988424;28;20383;-72
2022/11/06 00:49:17;;;;;;;51.65;9.95;;;3.00;99.90;;;;;;4989738;28;20034;-71
2022/11/06 00:51:43;;;;;;;69.97;10.52;;;3.00;99.90;;;;;;4990691;28;20030;-71
2022/11/06 00:54:11;;;;;;;64.53;10.82;;;2.90;99.90;;;;;;4989042;28;20052;-72
2022/11/06 00:56:37;;;;;;;21.50;9.68;;;2.80;99.90;;;;;;4983294;28;20049;-70
2022/11/06 00:59:06;;;;;;;19.52;9.77;;;2.80;99.90;;;;;;4988553;28;20033;-71
2022/11/06 01:01:34;;;;;;;64.90;10.77;;;2.80;99.90;;;;;;4993523;28;20045;-71
2022/11/06 01:04:06;;;;;;;90.72;11.48;;;2.80;99.90;;;;;;5008067;28;20026;-70
2022/11/06 01:06:35;;;;;;;60.20;10.60;;;2.70;99.90;;;;;;4996995;28;20038;-71
2022/11/06 01:09:02;;;;;;;49.70;7.27;;;2.70;99.90;;;;;;4989106;28;20038;-69
2022/11/06 01:11:29;;;;;;;70.30;9.98;;;2.60;99.90;;;;;;4989494;28;20034;-71
2022/11/06 01:13:57;;;;;;;65.88;10.07;;;2.50;99.90;;;;;;4988600;28;20022;-71
2022/11/06 01:16:24;;;;;;;77.50;10.93;;;2.60;99.90;;;;;;4990148;28;20038;-71
2022/11/06 01:18:50;;;;;;;85.88;10.02;;;2.50;99.90;;;;;;4988782;28;20549;-71
2022/11/06 01:21:34;;;;;;;58.75;9.10;;;2.40;99.90;;;;;;4989384;28;20177;-71
2022/11/06 01:24:02;;;;;;;194.80;11.75;;;2.40;99.90;;;;;;4988197;28;20483;-72
2022/11/06 01:26:29;;;;;;;56.25;9.43;;;2.40;99.90;;;;;;4983442;28;20204;-71
2022/11/06 01:28:55;;;;;;;24.48;8.75;;;2.40;99.90;;;;;;4980717;28;20491;-72
2022/11/06 01:31:25;;;;;;;18.15;8.65;;;2.40;99.90;;;;;;4988792;28;20038;-71
2022/11/06 01:33:51;;;;;;;22.30;6.40;;;2.40;99.90;;;;;;4989058;28;20042;-71
2022/11/06 01:36:19;;;;;;;18.95;7.72;;;2.40;99.90;;;;;;4987825;28;20456;-71
2022/11/06 01:38:48;;;;;;;35.03;7.88;;;2.40;99.90;;;;;;4988269;28;20039;-71
2022/11/06 01:41:17;;;;;;;42.88;8.25;;;2.40;99.90;;;;;;4986871;28;20665;-71
2022/11/06 01:43:53;;;;;;;31.73;8.05;;;2.50;99.90;;;;;;4987688;28;20050;-69
2022/11/06 01:46:21;;;;;;;88.35;9.20;;;2.50;99.90;;;;;;4992550;28;20042;-71
2022/11/06 01:48:53;;;;;;;37.38;8.25;;;2.50;99.90;;;;;;4995200;28;20054;-71
2022/11/06 01:51:23;;;;;;;60.75;8.98;;;2.50;99.90;;;;;;4988178;28;20112;-72
2022/11/06 01:53:49;;;;;;;156.93;11.13;;;2.50;99.90;;;;;;4988887;28;20058;-72
2022/11/06 01:56:15;;;;;;;16.48;8.20;;;2.50;99.90;;;;;;4984276;28;20023;-71
2022/11/06 01:58:43;;;;;;;13.80;7.57;;;2.40;99.90;;;;;;4980766;28;20121;-70
2022/11/06 02:01:08;;;;;;;17.90;8.00;;;2.40;99.90;;;;;;4991555;28;20061;-72
2022/11/06 02:03:41;;;;;;;80.88;8.90;;;2.40;99.90;;;;;;5008911;28;20123;-71
2022/11/06 02:06:08;;;;;;;51.67;8.15;;;2.40;99.90;;;;;;4997032;28;20024;-71
2022/11/06 02:08:34;;;;;;;332.92;15.70;;;2.40;99.90;;;;;;4988306;28;20065;-70
2022/11/06 02:11:00;;;;;;;210.15;10.82;;;2.40;99.90;;;;;;4988225;28;20471;-71
2022/11/06 02:13:49;;;;;;;263.02;13.27;;;2.30;99.90;;;;;;4988822;28;20031;-70
2022/11/06 02:16:37;;;;;;;19.88;7.90;;;2.30;99.90;;;;;;4997150;28;20034;-71
2022/11/06 02:19:05;;;;;;;94.65;11.27;;;2.30;99.90;;;;;;4999272;28;20030;-70
2022/11/06 02:21:57;;;;;;;141.13;10.38;;;2.30;99.90;;;;;;4987953;28;20045;-70
2022/11/06 02:24:31;;;;;;;67.28;8.90;;;2.30;99.90;;;;;;4992113;28;20030;-71
2022/11/06 02:27:11;;;;;;;27.25;8.25;;;2.20;99.90;;;;;;5000178;28;20045;-72
2022/11/06 02:29:44;;;;;;;14.63;7.65;;;2.10;99.90;;;;;;4993131;28;20370;-70
2022/11/06 02:32:24;;;;;;;15.25;7.55;;;2.10;99.90;;;;;;4991803;28;20042;-70
2022/11/06 02:34:53;;;;;;;28.38;8.13;;;2.10;99.90;;;;;;4993166;28;20035;-72
2022/11/06 02:37:26;;;;;;;35.30;8.80;;;2.10;99.90;;;;;;4991380;28;20228;-71
2022/11/06 02:39:56;;;;;;;14.90;7.65;;;2.10;99.90;;;;;;4991459;28;20030;-70
2022/11/06 02:42:24;;;;;;;19.55;7.35;;;2.10;99.90;;;;;;4991404;28;20031;-71
2022/11/06 02:44:52;;;;;;;54.00;8.32;;;2.00;99.90;;;;;;4992435;28;20050;-71
2022/11/06 02:47:20;;;;;;;60.95;8.25;;;1.90;99.90;;;;;;4980899;28;20042;-70
2022/11/06 02:50:21;;;;;;;31.77;7.75;;;1.90;99.90;;;;;;4990769;28;20373;-71
2022/11/06 02:52:53;;;;;;;13.20;7.10;;;1.90;99.90;;;;;;4968913;28;20591;-71
2022/11/06 02:55:49;;;;;;;14.05;7.68;;;1.90;99.90;;;;;;4985880;28;20053;-70
2022/11/06 02:58:23;;;;;;;20.60;8.55;;;1.80;99.90;;;;;;4987499;28;20042;-70
2022/11/06 03:00:58;;;;;;;96.15;8.88;;;1.80;99.90;;;;;;4991610;28;20038;-70
2022/11/06 03:03:28;;;;;;;57.15;8.50;;;1.80;99.90;;;;;;4992291;28;20034;-71
2022/11/06 03:06:06;;;;;;;116.15;9.13;;;1.90;99.90;;;;;;4991756;28;20026;-70
2022/11/06 03:08:50;;;;;;;37.92;7.90;;;1.80;99.90;;;;;;4992574;28;20092;-70
2022/11/06 03:11:15;;;;;;;17.58;7.70;;;1.80;99.90;;;;;;4997621;28;20030;-70
2022/11/06 03:14:04;;;;;;;20.55;7.43;;;1.80;99.90;;;;;;5012103;28;20037;-71
2022/11/06 03:16:32;;;;;;;35.28;6.88;;;1.80;99.90;;;;;;4969415;28;20054;-69
2022/11/06 03:19:20;;;;;;;16.63;7.82;;;1.80;99.90;;;;;;4972988;28;20110;-70
2022/11/06 03:22:09;;;;;;;83.38;9.40;;;1.80;99.90;;;;;;4991165;28;20703;-70
2022/11/06 03:25:13;;;;;;;94.60;8.95;;;1.90;99.90;;;;;;4991124;28;20018;-70
2022/11/06 03:28:00;;;;;;;46.28;7.78;;;1.90;99.90;;;;;;4980545;28;20054;-71
2022/11/06 03:30:26;;;;;;;23.92;7.90;;;1.90;99.90;;;;;;4990016;28;20054;-71
2022/11/06 03:33:38;;;;;;;29.70;7.68;;;1.90;99.90;;;;;;4990569;28;20112;-70
2022/11/06 03:36:17;;;;;;;55.90;7.65;;;1.90;99.90;;;;;;4986688;28;20050;-71
2022/11/06 03:38:47;;;;;;;87.03;8.90;;;1.90;99.90;;;;;;4974027;28;20066;-70
2022/11/06 03:41:38;;;;;;;27.60;8.35;;;1.90;99.90;;;;;;4994362;28;20513;-70
2022/11/06 03:44:07;;;;;;;47.85;8.25;;;1.90;99.90;;;;;;5010838;28;20089;-72
2022/11/06 03:46:37;;;;;;;38.50;8.35;;;1.90;99.90;;;;;;4990126;28;20537;-70
2022/11/06 03:49:11;;;;;;;13.10;7.28;;;1.80;99.90;;;;;;4990493;28;20038;-73
2022/11/06 03:51:51;;;;;;;57.00;9.32;;;1.80;99.90;;;;;;4990969;28;20419;-70
2022/11/06 03:54:22;;;;;;;146.50;10.55;;;1.80;99.90;;;;;;4989068;28;20026;-71
2022/11/06 03:56:56;;;;;;;26.23;7.28;;;1.80;99.90;;;;;;5000154;28;20029;-69
2022/11/06 03:59:29;;;;;;;28.55;7.95;;;1.60;99.90;;;;;;4995510;28;20034;-71
2022/11/06 04:01:56;;;;;;;140.05;10.13;;;1.60;99.90;;;;;;4985505;28;20478;-69
2022/11/06 04:04:36;;;;;;;182.57;10.00;;;1.60;99.90;;;;;;4990627;28;20273;-71
2022/11/06 04:07:06;;;;;;;55.50;7.80;;;1.50;99.90;;;;;;4990431;28;20034;-70
2022/11/06 04:15:12;;;;;;;16.83;6.53;;;1.30;99.90;;;;;;4988734;28;20065;-73
2022/11/06 04:17:39;;;;;;;16.63;7.15;;;1.30;99.90;;;;;;4990306;28;20504;-69
2022/11/06 04:20:09;;;;;;;63.72;8.20;;;1.20;99.90;;;;;;4990059;28;20080;-72
2022/11/06 04:22:48;;;;;;;27.85;7.07;;;1.30;99.90;;;;;;4990926;28;20026;-70
2022/11/06 04:28:28;;;;;;;39.15;7.18;;;1.40;99.90;;;;;;4990029;28;20180;-71
2022/11/06 04:31:26;;;;;;;60.50;7.38;;;1.40;99.90;;;;;;4989340;28;20058;-71
2022/11/06 04:34:00;;;;;;;23.73;6.78;;;1.40;99.90;;;;;;4989373;28;20400;-71
2022/11/06 04:36:46;;;;;;;140.38;8.50;;;1.40;99.90;;;;;;4989108;28;20478;-70
2022/11/06 04:39:28;;;;;;;65.90;7.85;;;1.30;99.90;;;;;;4989292;28;20022;-70
2022/11/06 04:42:09;;;;;;;64.70;7.97;;;1.30;99.90;;;;;;4990070;28;20030;-70
2022/11/06 04:44:46;;;;;;;18.73;6.38;;;1.30;99.90;;;;;;4989912;28;20062;-71
2022/11/06 04:47:16;;;;;;;38.53;7.20;;;1.20;99.90;;;;;;5008010;28;20478;-70
2022/11/06 04:49:44;;;;;;;16.42;6.82;;;1.20;99.90;;;;;;4992484;28;20399;-72
2022/11/06 04:52:13;;;;;;;32.08;7.60;;;1.20;99.90;;;;;;4989457;28;20041;-71
2022/11/06 04:54:39;;;;;;;22.80;6.40;;;1.20;99.90;;;;;;4990395;28;20045;-71
2022/11/06 04:57:05;;;;;;;29.88;6.05;;;1.20;99.90;;;;;;4989232;28;20030;-72
2022/11/06 04:59:35;;;;;;;43.55;7.00;;;1.20;99.90;;;;;;4989691;28;20034;-71
2022/11/06 05:02:00;;;;;;;59.53;7.05;;;1.20;99.90;;;;;;4994555;28;20038;-70
2022/11/06 05:04:26;;;;;;;115.30;7.63;;;1.20;99.90;;;;;;4989599;28;20045;-70
2022/11/06 05:06:51;;;;;;;17.60;6.30;;;1.20;99.90;;;;;;4987802;28;20026;-71
2022/11/06 05:09:17;;;;;;;23.40;6.88;;;1.10;99.90;;;;;;4988239;28;20037;-70
2022/11/06 05:11:43;;;;;;;51.97;7.25;;;1.00;99.90;;;;;;4988684;28;20030;-70
2022/11/06 05:14:08;;;;;;;11.82;5.60;;;1.10;99.90;;;;;;4988620;28;20034;-72
2022/11/06 05:16:34;;;;;;;36.22;6.82;;;1.00;99.90;;;;;;5006083;28;20475;-70
2022/11/06 05:19:00;;;;;;;13.45;6.05;;;1.10;99.90;;;;;;4996116;28;20030;-71
2022/11/06 05:24:09;;;;;;;13.70;6.32;;;1.00;99.90;;;;;;4987679;28;20045;-73
2022/11/06 05:26:35;;;;;;;35.40;7.13;;;1.00;99.90;;;;;;4990056;28;20026;-70
2022/11/06 05:29:01;;;;;;;25.20;6.80;;;1.00;99.90;;;;;;4997543;28;20050;-70
2022/11/06 05:31:26;;;;;;;24.63;7.13;;;1.00;99.90;;;;;;4988659;28;20042;-69
2022/11/06 05:33:52;;;;;;;65.95;6.88;;;1.00;99.90;;;;;;4981533;28;20435;-70
2022/11/06 05:36:18;;;;;;;36.20;6.38;;;1.00;99.90;;;;;;4990859;28;20030;-71
2022/11/06 05:38:44;;;;;;;32.78;6.03;;;1.00;99.90;;;;;;4996528;28;20092;-71
2022/11/06 05:41:10;;;;;;;13.88;6.38;;;1.00;99.90;;;;;;4989207;28;20033;-72
2022/11/06 05:43:36;;;;;;;79.15;7.28;;;0.80;99.90;;;;;;4988726;28;20241;-71
2022/11/06 05:46:01;;;;;;;114.38;6.75;;;0.70;99.90;;;;;;4989640;28;20085;-71
2022/11/06 05:48:28;;;;;;;21.23;5.70;;;0.60;99.90;;;;;;4986719;28;20060;-71
2022/11/06 05:51:02;;;;;;;128.77;9.30;;;0.50;99.90;;;;;;4985917;28;20026;-70
2022/11/06 05:53:33;;;;;;;77.75;6.57;;;0.40;99.90;;;;;;5008444;28;20026;-71
2022/11/06 05:55:59;;;;;;;73.82;6.63;;;0.30;99.90;;;;;;4992434;28;20041;-71
2022/11/06 05:58:26;;;;;;;17.45;5.25;;;0.20;99.90;;;;;;4986236;28;20038;-71
2022/11/06 06:00:53;;;;;;;10.05;5.40;;;0.10;99.90;;;;;;4987694;28;20061;-70
2022/11/06 06:03:20;;;;;;;9.75;5.43;;;0.10;99.90;;;;;;4985816;28;20061;-69
2022/11/06 06:05:46;;;;;;;11.43;5.53;;;0.20;99.90;;;;;;4989425;28;20058;-70
2022/11/06 06:08:12;;;;;;;11.15;5.50;;;0.30;99.90;;;;;;4998876;28;20042;-72
2022/11/06 06:10:42;;;;;;;11.52;5.68;;;0.40;99.90;;;;;;4985564;28;20040;-70
2022/11/06 06:13:08;;;;;;;11.68;5.95;;;0.40;99.90;;;;;;5002089;28;20065;-69
2022/11/06 06:15:36;;;;;;;11.68;5.97;;;0.50;99.90;;;;;;4986358;28;20081;-71
2022/11/06 06:18:01;;;;;;;15.48;6.30;;;0.50;99.90;;;;;;4994023;28;20034;-71
2022/11/06 06:20:27;;;;;;;12.18;6.30;;;0.40;99.90;;;;;;4987336;28;20838;-67
2022/11/06 06:22:57;;;;;;;11.82;5.95;;;0.40;99.90;;;;;;4982609;28;20030;-69
2022/11/06 06:25:24;;;;;;;23.40;12.73;;;0.50;99.90;;;;;;4982528;28;20045;-69
2022/11/06 06:27:50;;;;;;;21.63;10.88;;;0.50;99.90;;;;;;4986173;28;20126;-69
2022/11/06 06:30:15;;;;;;;102.03;13.15;;;0.60;99.90;;;;;;4986611;28;20122;-71
2022/11/06 06:32:41;;;;;;;27.98;11.77;;;0.60;99.90;;;;;;4987978;28;20035;-73
2022/11/06 06:35:07;;;;;;;50.67;9.80;;;0.70;99.90;;;;;;5003595;28;20100;-70
2022/11/06 06:37:33;;;;;;;24.95;9.15;;;0.60;99.90;;;;;;4985466;28;20018;-72
2022/11/06 06:39:59;;;;;;;26.83;9.02;;;0.60;99.90;;;;;;4986185;28;20391;-71
2022/11/06 06:42:24;;;;;;;19.40;8.77;;;0.60;99.90;;;;;;4987080;28;20117;-70
2022/11/06 06:44:50;;;;;;;25.83;8.48;;;0.70;99.90;;;;;;4984607;28;20035;-70
2022/11/06 06:47:16;;;;;;;21.95;9.02;;;0.70;99.90;;;;;;4985741;28;20570;-70
2022/11/06 06:49:43;;;;;;;17.98;8.55;;;0.70;99.90;;;;;;4981518;28;20030;-69
2022/11/06 06:52:09;;;;;;;18.95;8.40;;;0.80;99.90;;;;;;4986590;28;20030;-70
2022/11/06 06:54:35;;;;;;;59.13;7.95;;;0.80;99.90;;;;;;4984167;28;20030;-68
2022/11/06 06:57:00;;;;;;;92.72;9.50;;;0.80;99.90;;;;;;4987388;28;20475;-69
2022/11/06 06:59:29;;;;;;;72.85;8.40;;;0.80;99.90;;;;;;4986506;28;20109;-72
2022/11/06 07:01:56;;;;;;;89.53;10.00;;;0.60;99.90;;;;;;4971923;28;20058;-70
2022/11/06 07:04:22;;;;;;;57.33;8.60;;;0.50;99.90;;;;;;4989729;28;20023;-69
2022/11/06 07:06:48;;;;;;;34.28;7.43;;;0.40;99.90;;;;;;4987670;28;20038;-71
2022/11/06 07:09:13;;;;;;;22.75;7.47;;;0.50;99.90;;;;;;4988350;28;20046;-72
2022/11/06 07:11:39;;;;;;;14.73;7.15;;;0.50;99.90;;;;;;4989668;28;20088;-70
2022/11/06 07:14:05;;;;;;;16.95;7.85;;;0.60;99.90;;;;;;4991475;28;20034;-70
2022/11/06 07:16:31;;;;;;;28.85;9.07;;;0.70;99.90;;;;;;4987677;28;20636;-69
2022/11/06 07:18:57;;;;;;;58.13;13.40;;;0.80;99.90;;;;;;4990215;28;20494;-68
2022/11/06 07:21:23;;;;;;;25.88;10.55;;;0.90;99.90;;;;;;5005726;28;20034;-70
2022/11/06 07:23:49;;;;;;;193.88;11.85;;;1.00;99.90;;;;;;4990331;28;20022;-72
2022/11/06 07:26:15;;;;;;;333.02;16.00;;;1.10;99.90;;;;;;4988123;28;20365;-72
2022/11/06 07:28:40;;;;;;;239.90;12.18;;;1.00;99.90;;;;;;4988677;28;20065;-69
2022/11/06 07:31:07;;;;;;;21.65;7.00;;;1.00;99.90;;;;;;4990851;28;20108;-70
2022/11/06 07:33:33;;;;;;;16.08;7.93;;;1.00;99.90;;;;;;4987780;28;20487;-68
2022/11/06 07:36:08;;;;;;;29.33;11.07;;;1.00;99.90;;;;;;4992002;28;20034;-70
2022/11/06 07:38:35;;;;;;;45.50;14.85;;;1.10;99.90;;;;;;4985486;28;20038;-66
2022/11/06 07:41:11;;;;;;;44.05;14.82;;;1.20;99.90;;;;;;4989779;28;20146;-67
2022/11/06 07:43:37;;;;;;;53.25;20.77;;;1.30;99.90;;;;;;4985885;28;20478;-66
2022/11/06 07:46:06;;;;;;;53.45;19.27;;;1.40;99.90;;;;;;4989705;28;20844;-67
2022/11/06 07:48:32;;;;;;;45.30;17.38;;;1.60;99.90;;;;;;4987406;28;20038;-67
2022/11/06 07:51:01;;;;;;;42.60;18.52;;;1.70;99.90;;;;;;4986839;28;20026;-67
2022/11/06 07:53:28;;;;;;;32.03;14.35;;;1.80;99.90;;;;;;4990355;28;20133;-67
2022/11/06 07:55:55;;;;;;;52.38;14.15;;;2.00;99.90;;;;;;4996563;28;20464;-66
2022/11/06 07:58:22;;;;;;;27.30;11.82;;;2.50;99.90;;;;;;4989103;28;20467;-68
2022/11/06 08:00:56;;;;;;;26.90;11.63;;;2.50;99.90;;;;;;4988878;28;20031;-67
2022/11/06 08:03:23;;;;;;;32.70;13.05;;;2.60;99.90;;;;;;4986146;28;20463;-67
2022/11/06 08:05:49;;;;;;;26.20;11.18;;;2.80;99.90;;;;;;4988841;28;20440;-67
2022/11/06 08:08:15;;;;;;;33.35;12.15;;;3.00;99.90;;;;;;4989311;28;20046;-71
2022/11/06 08:10:42;;;;;;;31.08;12.00;;;3.30;99.90;;;;;;4989813;28;20050;-67
2022/11/06 08:13:13;;;;;;;28.52;11.05;;;3.70;99.90;;;;;;5002320;28;20034;-68
2022/11/06 08:15:40;;;;;;;30.77;10.90;;;4.10;99.90;;;;;;4988360;28;20034;-64
2022/11/06 08:18:07;;;;;;;32.45;11.93;;;4.30;99.90;;;;;;4991118;28;20531;-67
2022/11/06 08:20:37;;;;;;;28.05;10.38;;;4.50;99.90;;;;;;4987868;28;20125;-65
2022/11/06 08:23:05;;;;;;;25.67;9.80;;;4.80;99.90;;;;;;4986835;28;20030;-67
2022/11/06 08:25:31;;;;;;;28.17;10.85;;;5.00;99.90;;;;;;5009474;28;20038;-66
2022/11/06 08:28:01;;;;;;;25.77;11.35;;;5.10;99.90;;;;;;4977412;28;20109;-66
2022/11/06 08:30:28;;;;;;;26.25;10.85;;;5.10;99.90;;;;;;4979231;28;20128;-66
2022/11/06 08:32:54;;;;;;;22.63;9.32;;;5.10;99.90;;;;;;4989130;28;20042;-67
2022/11/06 08:35:21;;;;;;;23.73;9.32;;;5.20;99.90;;;;;;4986247;28;20513;-67
2022/11/06 08:37:46;;;;;;;24.23;9.30;;;5.40;99.90;;;;;;4988474;28;20121;-67
2022/11/06 08:40:12;;;;;;;21.70;8.38;;;5.50;99.90;;;;;;5006247;28;20097;-66
2022/11/06 08:42:38;;;;;;;21.88;8.98;;;5.80;99.90;;;;;;4989930;28;20105;-67
2022/11/06 08:45:04;;;;;;;23.60;8.52;;;5.90;99.90;;;;;;4990561;28;20383;-67
2022/11/06 08:47:30;;;;;;;22.60;9.07;;;6.10;99.90;;;;;;4985130;28;20057;-66
2022/11/06 08:49:56;;;;;;;19.38;7.95;;;6.30;99.90;;;;;;5006298;28;20110;-68
2022/11/06 08:52:21;;;;;;;21.90;8.38;;;6.50;99.90;;;;;;5009744;28;20034;-70
2022/11/06 08:54:47;;;;;;;20.33;8.45;;;6.60;99.90;;;;;;5004592;28;20037;-67
2022/11/06 08:57:13;;;;;;;20.27;8.82;;;6.70;99.90;;;;;;4989721;28;20043;-67
2022/11/06 08:59:38;;;;;;;20.67;8.90;;;6.90;99.90;;;;;;4987948;28;20117;-66
2022/11/06 09:02:04;;;;;;;21.33;9.15;;;7.00;99.90;;;;;;4998347;28;20387;-66
2022/11/06 09:04:29;;;;;;;20.20;9.15;;;7.20;99.90;;;;;;4984973;28;20037;-66
2022/11/06 09:06:56;;;;;;;21.52;9.07;;;7.30;99.90;;;;;;4988464;28;20061;-64
2022/11/06 09:09:22;;;;;;;18.23;8.10;;;7.50;99.90;;;;;;4986715;28;20043;-71
2022/11/06 09:11:47;;;;;;;19.23;8.20;;;7.60;99.90;;;;;;4982530;28;20030;-66
2022/11/06 09:14:13;;;;;;;18.92;8.63;;;7.70;99.90;;;;;;4988890;28;20038;-67
2022/11/06 09:16:39;;;;;;;15.35;7.38;;;7.90;99.90;;;;;;4986966;28;20519;-68
2022/11/06 09:19:04;;;;;;;18.48;7.88;;;7.90;99.90;;;;;;4990091;28;20089;-68
2022/11/06 09:21:31;;;;;;;15.25;6.55;;;8.00;99.90;;;;;;4988221;28;21727;-65
2022/11/06 09:23:57;;;;;;;13.80;6.90;;;8.10;99.90;;;;;;4987196;28;20030;-66
2022/11/06 09:26:22;;;;;;;17.45;7.18;;;8.00;99.90;;;;;;4988284;28;20109;-70
2022/11/06 09:28:51;;;;;;;16.10;7.20;;;8.10;99.90;;;;;;4982695;28;20126;-65
2022/11/06 09:31:16;;;;;;;15.30;7.22;;;8.00;99.90;;;;;;4972573;28;20092;-67
2022/11/06 09:33:42;;;;;;;15.38;7.00;;;8.20;99.90;;;;;;4988859;28;20266;-65
2022/11/06 09:36:08;;;;;;;15.00;7.13;;;8.20;99.90;;;;;;4992891;28;20116;-66
2022/11/06 09:38:34;;;;;;;21.27;8.65;;;8.20;99.90;;;;;;4986201;28;20069;-67
2022/11/06 09:41:03;;;;;;;23.58;9.40;;;8.30;99.90;;;;;;4987158;28;20069;-67
2022/11/06 09:43:51;;;;;;;16.60;7.57;;;8.40;99.90;;;;;;4986165;28;20054;-68
2022/11/06 09:46:22;;;;;;;14.00;5.95;;;8.40;99.90;;;;;;4987164;28;20435;-67
2022/11/06 09:48:54;;;;;;;22.92;9.43;;;8.50;99.90;;;;;;4986958;28;20050;-65
2022/11/06 09:51:27;;;;;;;18.10;7.60;;;8.70;99.90;;;;;;4988335;28;20402;-67
2022/11/06 09:54:03;;;;;;;32.83;11.57;;;8.80;99.90;;;;;;4997634;28;20026;-66
2022/11/06 09:56:33;;;;;;;12.48;6.20;;;8.80;99.90;;;;;;4986658;28;20113;-68
2022/11/06 09:59:04;;;;;;;12.40;6.23;;;8.60;99.90;;;;;;4985164;28;20801;-67
2022/11/06 10:01:49;;;;;;;13.73;5.90;;;8.60;99.90;;;;;;4982903;28;20277;-67
2022/11/06 10:04:48;;;;;;;10.57;5.30;;;8.60;99.90;;;;;;4985583;28;20365;-67
2022/11/06 10:07:36;;;;;;;13.02;6.53;;;8.50;99.90;;;;;;4987783;28;20066;-68
2022/11/06 10:10:05;;;;;;;13.10;5.80;;;8.50;99.90;;;;;;4994793;28;20034;-66
2022/11/06 10:12:34;;;;;;;13.85;5.80;;;8.40;99.90;;;;;;4986355;28;20038;-65
2022/11/06 10:15:16;;;;;;;15.50;6.25;;;8.50;99.90;;;;;;4988975;28;20117;-66
2022/11/06 10:17:53;;;;;;;12.98;6.25;;;8.60;99.90;;;;;;4986497;28;20109;-65
2022/11/06 10:20:47;;;;;;;13.93;6.85;;;8.80;99.90;;;;;;4989502;28;20476;-65
2022/11/06 10:23:13;;;;;;;19.40;7.40;;;8.80;99.90;;;;;;4987156;28;20026;-68
2022/11/06 10:26:04;;;;;;;13.02;6.65;;;8.80;99.90;;;;;;4987713;28;20034;-67
2022/11/06 10:28:41;;;;;;;12.73;6.82;;;8.90;99.90;;;;;;4985011;28;20054;-65
2022/11/06 10:31:34;;;;;;;14.82;6.38;;;9.00;99.90;;;;;;4988185;28;20117;-65
2022/11/06 10:34:22;;;;;;;14.45;5.78;;;9.10;99.90;;;;;;4986523;28;20105;-67
2022/11/06 10:36:51;;;;;;;13.02;6.38;;;9.10;99.90;;;;;;4977907;28;20097;-66
2022/11/06 10:39:30;;;;;;;13.50;6.65;;;9.20;99.90;;;;;;4988454;28;20483;-65
2022/11/06 10:42:08;;;;;;;14.57;6.75;;;9.20;99.90;;;;;;4988293;28;20031;-66
2022/11/06 10:44:58;;;;;;;14.80;6.93;;;9.10;99.90;;;;;;4986022;28;20065;-67
2022/11/06 10:47:32;;;;;;;15.77;6.87;;;9.30;99.90;;;;;;4991315;28;20399;-66
2022/11/06 10:50:01;;;;;;;16.35;7.07;;;9.50;99.90;;;;;;4990773;28;20289;-65
2022/11/06 10:52:35;;;;;;;14.05;6.88;;;9.60;99.90;;;;;;4990138;28;20034;-69
2022/11/06 10:55:40;;;;;;;13.88;7.00;;;9.70;99.90;;;;;;4990593;28;20562;-66
2022/11/06 10:58:21;;;;;;;12.80;6.78;;;9.70;99.90;;;;;;4987834;28;20029;-65
2022/11/06 11:00:49;;;;;;;17.27;7.68;;;9.60;99.90;;;;;;4992305;28;20026;-66
2022/11/06 11:03:25;;;;;;;12.60;6.45;;;9.60;99.90;;;;;;4988445;28;20045;-67
2022/11/06 11:05:51;;;;;;;12.73;6.63;;;9.60;99.90;;;;;;4990103;28;20772;-67
2022/11/06 11:08:39;;;;;;;13.63;6.70;;;9.40;99.90;;;;;;4990405;28;20045;-67
2022/11/06 11:11:14;;;;;;;13.77;6.97;;;9.10;99.90;;;;;;4989928;28;20447;-66
2022/11/06 11:13:48;;;;;;;12.25;6.60;;;9.20;99.90;;;;;;4989553;28;20038;-69
2022/11/06 11:16:23;;;;;;;14.13;7.30;;;9.30;99.90;;;;;;4987233;28;20034;-68
2022/11/06 11:18:49;;;;;;;14.48;6.70;;;9.00;99.90;;;;;;4991711;28;20022;-68
2022/11/06 11:21:26;;;;;;;12.98;6.75;;;9.00;99.90;;;;;;4991423;28;20031;-67
2022/11/06 11:24:08;;;;;;;13.73;6.78;;;9.00;99.90;;;;;;4989398;28;20073;-65
2022/11/06 11:26:45;;;;;;;13.32;6.63;;;9.20;99.90;;;;;;4985685;28;20093;-67
2022/11/06 11:29:16;;;;;;;14.10;7.00;;;9.20;99.90;;;;;;4985841;28;20093;-67
2022/11/06 11:31:48;;;;;;;12.45;6.35;;;9.20;99.90;;;;;;4985638;28;20084;-70
2022/11/06 11:34:17;;;;;;;12.77;6.30;;;9.20;99.90;;;;;;4990269;28;20070;-67
2022/11/06 11:36:53;;;;;;;16.42;7.32;;;9.30;99.90;;;;;;4985213;28;20031;-67
2022/11/06 11:39:24;;;;;;;12.45;6.13;;;9.50;99.90;;;;;;4983246;28;20039;-66
2022/11/06 11:41:49;;;;;;;14.18;7.38;;;9.40;99.90;;;;;;4987013;28;20034;-67
2022/11/06 11:44:18;;;;;;;13.85;7.43;;;9.20;99.90;;;;;;4990223;28;20046;-67
2022/11/06 11:46:54;;;;;;;14.70;6.88;;;9.10;99.90;;;;;;4989140;28;21145;-67
2022/11/06 11:49:32;;;;;;;14.82;7.60;;;9.00;99.90;;;;;;4989950;28;20411;-73
2022/11/06 11:52:01;;;;;;;14.65;7.15;;;9.10;99.90;;;;;;4994669;28;20502;-70
2022/11/06 11:54:33;;;;;;;17.67;7.72;;;8.90;99.90;;;;;;4989825;28;20502;-72
2022/11/06 11:57:06;;;;;;;14.38;7.07;;;8.90;99.90;;;;;;4992049;28;20061;-72
2022/11/06 11:59:55;;;;;;;14.32;7.20;;;9.00;99.90;;;;;;4986496;28;20034;-75
2022/11/06 12:02:29;;;;;;;16.25;7.82;;;9.10;99.90;;;;;;4987362;28;20069;-71
2022/11/06 12:05:13;;;;;;;15.75;7.57;;;9.10;99.90;;;;;;4990584;28;20478;-71
2022/11/06 12:07:46;;;;;;;13.65;6.80;;;9.20;99.90;;;;;;4986221;28;20038;-70
2022/11/06 12:10:39;;;;;;;13.88;7.07;;;9.40;99.90;;;;;;4992023;28;20022;-70
2022/11/06 12:13:13;;;;;;;13.77;6.82;;;9.30;99.90;;;;;;4988381;28;20034;-65
2022/11/06 12:15:57;;;;;;;16.60;7.43;;;9.50;99.90;;;;;;4990779;28;20038;-66
2022/11/06 12:18:29;;;;;;;12.00;6.53;;;9.60;99.90;;;;;;4991410;28;20030;-68
2022/11/06 12:21:05;;;;;;;12.15;6.35;;;9.80;99.90;;;;;;4990670;28;20113;-69
2022/11/06 12:24:04;;;;;;;13.57;6.85;;;9.80;99.90;;;;;;4991077;28;20030;-72
2022/11/06 12:26:39;;;;;;;11.75;6.35;;;9.70;99.90;;;;;;4999765;28;20045;-70
2022/11/06 12:29:23;;;;;;;14.88;6.70;;;9.80;99.90;;;;;;4994923;28;20049;-69
2022/11/06 12:32:17;;;;;;;12.98;6.80;;;10.00;99.90;;;;;;4990533;28;20035;-68
2022/11/06 12:35:07;;;;;;;14.00;6.88;;;10.10;99.90;;;;;;4990459;28;20041;-67
2022/11/06 12:37:59;;;;;;;15.07;6.88;;;10.10;99.90;;;;;;4998837;28;20058;-72
2022/11/06 12:40:30;;;;;;;12.00;6.10;;;10.60;99.90;;;;;;4990937;28;20022;-68
2022/11/06 12:43:08;;;;;;;20.40;7.85;;;10.50;99.90;;;;;;4994912;28;20115;-69
2022/11/06 12:45:51;;;;;;;19.58;8.18;;;10.50;99.90;;;;;;5010236;28;20033;-74
2022/11/06 12:48:33;;;;;;;19.55;7.53;;;10.40;99.90;;;;;;5008739;28;20064;-69
2022/11/06 12:51:10;;;;;;;15.25;6.85;;;10.60;99.90;;;;;;4995678;28;20034;-70
2022/11/06 12:53:55;;;;;;;36.88;11.82;;;10.50;99.90;;;;;;4988653;28;20438;-75
2022/11/06 12:56:52;;;;;;;34.40;12.38;;;10.20;99.90;;;;;;4991075;28;20467;-70
2022/11/06 12:59:54;;;;;;;16.27;8.57;;;10.30;99.90;;;;;;4979433;28;20046;-74
2022/11/06 13:02:22;;;;;;;13.10;6.68;;;10.00;99.90;;;;;;5008895;28;20033;-70
2022/11/06 13:05:06;;;;;;;15.98;7.78;;;10.00;99.90;;;;;;5007831;28;20482;-71
2022/11/06 13:07:38;;;;;;;14.60;7.32;;;10.10;99.90;;;;;;4988965;28;20045;-71
2022/11/06 13:10:30;;;;;;;16.27;7.53;;;10.20;99.90;;;;;;4990468;28;20022;-70
2022/11/06 13:13:01;;;;;;;17.15;7.95;;;9.80;99.90;;;;;;4990026;28;20061;-69
2022/11/06 13:15:39;;;;;;;14.73;7.60;;;9.60;99.90;;;;;;4988798;28;20030;-71
2022/11/06 13:18:11;;;;;;;15.55;7.75;;;9.40;99.90;;;;;;5004084;28;20038;-70
2022/11/06 13:20:59;;;;;;;15.73;8.32;;;9.40;99.90;;;;;;5009771;28;20068;-77